createdAt,value
2019-06-08T00:01:20.604Z,17.94
2019-06-08T00:03:51.764Z,17.93
2019-06-08T00:06:23.924Z,17.64
2019-06-08T00:08:55.911Z,17.58
2019-06-08T00:11:28.067Z,17.41
2019-06-08T00:14:00.164Z,17.50
2019-06-08T00:16:32.347Z,17.50
2019-06-08T00:19:04.466Z,17.43
2019-06-08T00:21:36.309Z,17.40
2019-06-08T00:24:08.066Z,17.39
2019-06-08T00:26:40.057Z,17.37
2019-06-08T00:29:12.139Z,17.23
2019-06-08T00:31:43.844Z,17.08
2019-06-08T00:34:16.553Z,17.08
2019-06-08T00:36:48.271Z,16.95
2019-06-08T00:39:20.910Z,17.09
2019-06-08T00:41:53.363Z,16.96
2019-06-08T00:44:25.747Z,16.94
2019-06-08T00:46:57.837Z,16.81
2019-06-08T00:49:29.843Z,16.72
2019-06-08T00:52:01.541Z,16.59
2019-06-08T00:54:34.383Z,16.58
2019-06-08T00:57:06.554Z,16.58
2019-06-08T00:59:38.446Z,16.50
2019-06-08T01:02:10.408Z,16.53
2019-06-08T01:04:42.218Z,16.45
2019-06-08T01:07:14.466Z,16.42
2019-06-08T01:09:46.542Z,16.41
2019-06-08T01:12:18.711Z,16.36
2019-06-08T01:14:50.466Z,16.34
2019-06-08T01:17:23.021Z,16.37
2019-06-08T01:19:54.987Z,16.33
2019-06-08T01:22:27.729Z,16.41
2019-06-08T01:24:59.516Z,16.55
2019-06-08T01:27:31.565Z,16.64
2019-06-08T01:30:03.369Z,16.75
2019-06-08T01:32:35.593Z,16.77
2019-06-08T01:35:07.675Z,16.79
2019-06-08T01:37:39.470Z,16.81
2019-06-08T01:40:11.581Z,16.81
2019-06-08T01:42:43.111Z,16.67
2019-06-08T01:45:32.434Z,16.47
2019-06-08T01:48:18.737Z,16.25
2019-06-08T01:50:39.264Z,16.10
2019-06-08T01:53:10.864Z,16.05
2019-06-08T01:55:42.566Z,16.03
2019-06-08T01:58:14.273Z,16.06
2019-06-08T02:00:45.944Z,16.01
2019-06-08T02:03:17.734Z,16.03
2019-06-08T02:05:49.768Z,16.08
2019-06-08T02:08:21.715Z,16.09
2019-06-08T02:10:53.426Z,16.10
2019-06-08T02:13:26.897Z,16.26
2019-06-08T02:15:58.709Z,16.16
2019-06-08T02:18:38.876Z,16.23
2019-06-08T02:21:02.823Z,16.20
2019-06-08T02:23:35.198Z,16.16
2019-06-08T02:26:07.182Z,16.08
2019-06-08T02:28:39.905Z,16.10
2019-06-08T02:31:12.190Z,16.26
2019-06-08T02:33:44.286Z,16.32
2019-06-08T02:36:16.252Z,16.39
2019-06-08T02:38:48.064Z,16.52
2019-06-08T02:41:20.135Z,16.52
2019-06-08T02:43:52.443Z,16.52
2019-06-08T02:46:24.059Z,16.52
2019-06-08T02:49:04.202Z,16.57
2019-06-08T02:51:31.152Z,16.58
2019-06-08T02:54:05.018Z,16.59
2019-06-08T02:56:36.751Z,16.65
2019-06-08T02:59:09.539Z,16.64
2019-06-08T03:01:42.472Z,16.33
2019-06-08T03:04:16.873Z,16.12
2019-06-08T03:06:50.627Z,15.82
2019-06-08T03:09:24.826Z,15.71
2019-06-08T03:11:57.513Z,15.64
2019-06-08T03:14:30.987Z,15.65
2019-06-08T03:17:02.860Z,15.60
2019-06-08T03:19:35.642Z,15.57
2019-06-08T03:22:10.787Z,15.60
2019-06-08T03:24:41.616Z,15.61
2019-06-08T03:27:13.649Z,15.81
2019-06-08T03:29:45.604Z,15.97
2019-06-08T03:32:17.376Z,16.15
2019-06-08T03:34:55.726Z,16.04
2019-06-08T03:37:22.650Z,16.07
2019-06-08T03:39:54.310Z,16.15
2019-06-08T03:42:25.752Z,16.23
2019-06-08T03:44:57.504Z,16.40
2019-06-08T03:47:29.532Z,16.39
2019-06-08T03:50:04.782Z,16.38
2019-06-08T03:52:37.784Z,16.38
2019-06-08T03:55:10.416Z,16.40
2019-06-08T03:57:42.218Z,16.51
2019-06-08T04:00:14.844Z,16.50
2019-06-08T04:02:46.877Z,16.41
2019-06-08T04:05:18.533Z,16.31
2019-06-08T04:07:50.579Z,16.27
2019-06-08T04:10:22.696Z,16.39
2019-06-08T04:12:54.368Z,16.52
2019-06-08T04:15:26.253Z,16.67
2019-06-08T04:17:57.946Z,16.87
2019-06-08T04:20:29.740Z,17.10
2019-06-08T04:23:01.707Z,17.29
2019-06-08T04:25:33.466Z,17.46
2019-06-08T04:28:05.243Z,17.60
2019-06-08T04:30:38.658Z,17.75
2019-06-08T04:33:10.798Z,17.91
2019-06-08T04:35:44.451Z,18.05
2019-06-08T04:38:16.016Z,18.29
2019-06-08T04:40:48.480Z,18.44
2019-06-08T04:43:20.933Z,18.61
2019-06-08T04:45:52.458Z,18.71
2019-06-08T04:48:24.389Z,18.83
2019-06-08T04:50:56.229Z,18.95
2019-06-08T04:53:27.947Z,19.05
2019-06-08T04:55:59.473Z,19.17
2019-06-08T04:58:32.350Z,19.29
2019-06-08T05:01:05.242Z,19.44
2019-06-08T05:03:36.948Z,19.54
2019-06-08T05:06:08.385Z,19.68
2019-06-08T05:08:40.948Z,19.49
2019-06-08T05:11:12.896Z,19.85
2019-06-08T05:13:45.375Z,19.99
2019-06-08T05:16:16.872Z,20.11
2019-06-08T05:18:49.685Z,20.37
2019-06-08T05:21:20.536Z,20.57
2019-06-08T05:23:58.607Z,20.70
2019-06-08T05:26:26.097Z,20.76
2019-06-08T05:28:57.714Z,20.92
2019-06-08T05:31:29.444Z,20.95
2019-06-08T05:34:01.044Z,21.14
2019-06-08T05:36:32.531Z,21.31
2019-06-08T05:39:04.857Z,21.52
2019-06-08T05:41:36.556Z,21.73
2019-06-08T05:44:08.302Z,21.95
2019-06-08T05:46:40.087Z,22.07
2019-06-08T05:49:11.915Z,22.18
2019-06-08T05:51:43.812Z,22.26
2019-06-08T05:54:15.750Z,22.36
2019-06-08T05:56:47.996Z,22.52
2019-06-08T05:59:19.786Z,22.69
2019-06-08T06:01:51.795Z,22.88
2019-06-08T06:04:23.650Z,22.96
2019-06-08T06:06:55.506Z,23.20
2019-06-08T06:09:27.357Z,23.35
2019-06-08T06:11:59.116Z,23.49
2019-06-08T06:14:30.908Z,23.65
2019-06-08T06:17:02.718Z,23.81
2019-06-08T06:19:34.512Z,23.91
2019-06-08T06:22:06.468Z,23.89
2019-06-08T06:24:38.278Z,24.08
2019-06-08T06:27:09.827Z,24.17
2019-06-08T06:29:41.662Z,24.13
2019-06-08T06:32:13.743Z,24.37
2019-06-08T06:34:45.824Z,24.48
2019-06-08T06:37:17.468Z,24.52
2019-06-08T06:39:50.071Z,24.53
2019-06-08T06:42:24.719Z,24.67
2019-06-08T06:44:55.944Z,24.85
2019-06-08T06:47:28.059Z,24.94
2019-06-08T06:49:59.918Z,24.93
2019-06-08T06:52:31.959Z,25.00
2019-06-08T06:55:03.428Z,25.14
2019-06-08T06:57:36.719Z,25.28
2019-06-08T07:00:10.457Z,25.43
2019-06-08T07:02:43.539Z,25.57
2019-06-08T07:05:15.861Z,25.65
2019-06-08T07:07:48.165Z,25.76
2019-06-08T07:10:19.938Z,25.81
2019-06-08T07:12:52.810Z,25.95
2019-06-08T07:15:30.977Z,26.07
2019-06-08T07:18:02.714Z,26.21
2019-06-08T07:20:34.569Z,26.32
2019-06-08T07:23:06.820Z,26.44
2019-06-08T07:25:38.495Z,26.45
2019-06-08T07:28:10.125Z,26.63
2019-06-08T07:30:41.765Z,26.70
2019-06-08T07:33:13.704Z,26.87
2019-06-08T07:35:45.258Z,26.91
2019-06-08T07:38:17.080Z,26.84
2019-06-08T07:40:49.954Z,26.84
2019-06-08T07:43:21.575Z,27.20
2019-06-08T07:45:54.180Z,27.20
2019-06-08T07:48:24.949Z,27.38
2019-06-08T07:50:56.620Z,27.33
2019-06-08T07:53:28.377Z,27.21
2019-06-08T07:55:59.883Z,27.35
2019-06-08T07:58:31.728Z,27.35
2019-06-08T08:01:07.972Z,27.52
2019-06-08T08:03:36.805Z,27.41
2019-06-08T08:06:08.662Z,27.42
2019-06-08T08:08:40.750Z,27.55
2019-06-08T08:11:12.321Z,27.67
2019-06-08T08:13:44.306Z,27.79
2019-06-08T08:16:15.923Z,27.92
2019-06-08T08:18:48.962Z,28.16
2019-06-08T08:21:25.609Z,28.36
2019-06-08T08:23:55.933Z,28.61
2019-06-08T08:26:30.460Z,28.84
2019-06-08T08:29:03.187Z,28.85
2019-06-08T08:31:37.287Z,28.97
2019-06-08T08:34:09.104Z,29.13
2019-06-08T08:36:39.837Z,29.19
2019-06-08T08:39:11.432Z,29.24
2019-06-08T08:41:44.406Z,29.36
2019-06-08T08:44:17.751Z,29.42
2019-06-08T08:46:51.412Z,29.50
2019-06-08T08:49:23.238Z,29.67
2019-06-08T08:51:56.111Z,29.78
2019-06-08T08:54:29.778Z,29.79
2019-06-08T08:57:05.104Z,29.74
2019-06-08T08:59:37.990Z,29.85
2019-06-08T09:02:11.449Z,29.97
2019-06-08T09:04:42.755Z,30.04
2019-06-08T09:07:14.845Z,30.10
2019-06-08T09:09:48.245Z,30.20
2019-06-08T09:12:19.723Z,30.03
2019-06-08T09:14:51.879Z,30.15
2019-06-08T09:17:24.828Z,30.25
2019-06-08T09:19:59.754Z,30.27
2019-06-08T09:22:31.478Z,30.45
2019-06-08T09:25:04.512Z,30.34
2019-06-08T09:27:38.269Z,30.33
2019-06-08T09:30:10.492Z,30.54
2019-06-08T09:32:42.563Z,30.49
2019-06-08T09:35:14.574Z,30.52
2019-06-08T09:37:48.409Z,30.75
2019-06-08T09:40:20.048Z,30.79
2019-06-08T09:42:57.249Z,30.79
2019-06-08T09:45:24.959Z,30.83
2019-06-08T09:47:59.648Z,31.02
2019-06-08T09:50:29.703Z,30.98
2019-06-08T09:53:14.901Z,31.00
2019-06-08T09:55:34.712Z,31.18
2019-06-08T09:58:09.472Z,31.09
2019-06-08T10:00:40.041Z,31.24
2019-06-08T10:03:12.036Z,31.31
2019-06-08T10:05:43.815Z,31.36
2019-06-08T10:08:20.229Z,31.31
2019-06-08T10:10:49.012Z,31.36
2019-06-08T10:13:21.753Z,31.38
2019-06-08T10:15:54.921Z,31.25
2019-06-08T10:18:28.485Z,31.43
2019-06-08T10:21:02.845Z,31.38
2019-06-08T10:23:34.887Z,31.45
2019-06-08T10:26:06.905Z,31.32
2019-06-08T10:28:39.151Z,31.42
2019-06-08T10:31:10.826Z,31.35
2019-06-08T10:33:42.317Z,31.33
2019-06-08T10:36:14.241Z,31.48
2019-06-08T10:38:48.010Z,31.58
2019-06-08T10:41:21.808Z,31.65
2019-06-08T10:43:52.988Z,31.66
2019-06-08T10:46:24.637Z,31.73
2019-06-08T10:48:57.393Z,31.65
2019-06-08T10:51:29.524Z,31.82
2019-06-08T10:54:02.089Z,31.94
2019-06-08T10:56:34.017Z,32.08
2019-06-08T10:59:09.972Z,31.88
2019-06-08T11:01:39.559Z,31.71
2019-06-08T11:04:11.295Z,31.81
2019-06-08T11:06:44.049Z,32.01
2019-06-08T11:09:18.719Z,31.98
2019-06-08T11:11:49.446Z,32.00
2019-06-08T11:14:22.756Z,32.05
2019-06-08T11:16:54.832Z,32.16
2019-06-08T11:19:26.795Z,32.08
2019-06-08T11:22:02.695Z,32.22
2019-06-08T11:24:32.211Z,32.01
2019-06-08T11:27:05.579Z,32.29
2019-06-08T11:29:38.323Z,32.41
2019-06-08T11:32:12.324Z,32.54
2019-06-08T11:34:43.596Z,32.63
2019-06-08T11:37:20.645Z,32.96
2019-06-08T11:39:49.168Z,32.97
2019-06-08T11:42:20.020Z,33.12
2019-06-08T11:44:51.607Z,33.35
2019-06-08T11:47:23.658Z,33.32
2019-06-08T11:49:57.543Z,33.58
2019-06-08T11:52:28.891Z,33.58
2019-06-08T11:55:02.596Z,33.75
2019-06-08T11:57:37.339Z,33.85
2019-06-08T12:00:23.486Z,34.12
2019-06-08T12:02:43.358Z,34.22
2019-06-08T12:05:15.151Z,34.67
2019-06-08T12:07:48.050Z,34.92
2019-06-08T12:10:19.859Z,34.85
2019-06-08T12:12:51.576Z,34.93
2019-06-08T12:15:23.449Z,35.15
2019-06-08T12:17:55.165Z,35.46
2019-06-08T12:20:28.009Z,35.16
2019-06-08T12:22:59.740Z,35.28
2019-06-08T12:25:31.442Z,35.18
2019-06-08T12:28:02.928Z,35.39
2019-06-08T12:30:34.981Z,35.54
2019-06-08T12:33:09.377Z,35.27
2019-06-08T12:35:40.261Z,35.35
2019-06-08T12:38:13.017Z,35.28
2019-06-08T12:40:45.068Z,35.65
2019-06-08T12:43:19.846Z,35.62
2019-06-08T12:45:50.779Z,35.66
2019-06-08T12:48:25.446Z,35.86
2019-06-08T12:50:55.818Z,35.58
2019-06-08T12:53:28.284Z,35.99
2019-06-08T12:55:59.921Z,35.75
2019-06-08T12:58:31.780Z,36.18
2019-06-08T13:01:03.986Z,36.14
2019-06-08T13:03:37.712Z,35.56
2019-06-08T13:06:11.226Z,36.14
2019-06-08T13:08:42.558Z,36.20
2019-06-08T13:11:14.359Z,36.25
2019-06-08T13:13:46.113Z,36.02
2019-06-08T13:16:23.754Z,36.13
2019-06-08T13:18:51.338Z,36.23
2019-06-08T13:21:34.176Z,36.14
2019-06-08T13:23:58.114Z,36.11
2019-06-08T13:26:31.115Z,36.20
2019-06-08T13:29:03.195Z,36.29
2019-06-08T13:31:34.920Z,36.10
2019-06-08T13:34:08.220Z,36.20
2019-06-08T13:36:42.246Z,36.05
2019-06-08T14:56:05.758Z,32.55
2019-06-08T14:58:34.663Z,32.22
2019-06-08T15:01:07.932Z,31.83
2019-06-08T15:03:40.759Z,31.57
2019-06-08T15:06:12.913Z,31.16
2019-06-08T15:08:45.221Z,31.17
2019-06-08T15:11:17.892Z,31.14
2019-06-08T15:13:50.944Z,30.85
2019-06-08T15:16:23.657Z,30.92
2019-06-08T15:18:54.754Z,30.83
2019-06-08T15:21:30.127Z,30.77
2019-06-08T15:24:01.140Z,30.72
2019-06-08T15:26:42.635Z,30.73
2019-06-08T15:29:10.975Z,30.60
2019-06-08T15:31:43.246Z,30.52
2019-06-08T15:34:17.797Z,30.41
2019-06-08T15:36:50.000Z,30.38
2019-06-08T15:39:23.474Z,30.32
2019-06-08T15:41:59.838Z,30.34
2019-06-08T15:44:30.729Z,30.20
2019-06-08T15:47:04.132Z,30.11
2019-06-08T15:49:38.858Z,29.94
2019-06-08T15:52:10.724Z,29.89
2019-06-08T15:54:44.325Z,29.81
2019-06-08T15:57:17.838Z,29.73
2019-06-08T15:59:49.399Z,29.49
2019-06-08T16:02:21.447Z,29.49
2019-06-08T16:04:53.908Z,29.52
2019-06-08T16:07:28.596Z,29.35
2019-06-08T16:10:00.748Z,29.22
2019-06-08T16:12:33.403Z,29.15
2019-06-08T16:15:06.530Z,29.07
2019-06-08T16:17:39.098Z,29.08
2019-06-08T16:20:11.667Z,29.02
2019-06-08T16:22:43.739Z,28.89
2019-06-08T16:25:16.272Z,28.93
2019-06-08T16:27:48.579Z,28.85
2019-06-08T16:30:21.080Z,28.84
2019-06-08T16:32:53.522Z,28.72
2019-06-08T16:35:27.921Z,28.65
2019-06-08T16:37:59.522Z,28.62
2019-06-08T16:40:32.103Z,28.54
2019-06-08T16:43:05.716Z,28.46
2019-06-08T16:45:39.437Z,28.43
2019-06-08T16:48:11.384Z,28.30
2019-06-08T16:50:43.986Z,28.30
2019-06-08T16:53:16.580Z,28.26
2019-06-08T17:15:16.816Z,28.28
2019-06-08T17:17:48.391Z,28.08
2019-06-08T17:20:20.168Z,27.96
2019-06-08T17:22:52.210Z,27.71
2019-06-08T17:25:23.681Z,27.62
2019-06-08T17:27:55.372Z,27.50
2019-06-08T17:30:27.190Z,27.46
2019-06-08T17:32:59.103Z,27.36
2019-06-08T17:35:31.379Z,27.28
2019-06-08T17:38:03.543Z,27.27
2019-06-08T17:40:35.867Z,27.10
2019-06-08T17:43:07.714Z,27.02
2019-06-08T17:45:40.719Z,26.97
2019-06-08T17:48:13.009Z,26.95
2019-06-08T17:50:44.854Z,26.95
2019-06-08T17:53:16.710Z,26.85
2019-06-08T17:55:48.434Z,26.81
2019-06-08T17:58:21.692Z,26.71
2019-06-08T18:00:53.299Z,26.68
2019-06-08T18:03:25.218Z,26.64
2019-06-08T18:05:58.094Z,26.51
2019-06-08T18:08:28.587Z,26.44
2019-06-08T18:11:00.091Z,26.40
2019-06-08T18:13:31.993Z,26.32
2019-06-08T18:16:03.488Z,26.24
2019-06-08T18:18:39.156Z,26.19
2019-06-08T18:21:09.830Z,26.11
2019-06-08T18:23:42.425Z,26.07
2019-06-08T18:26:17.255Z,26.03
2019-06-08T18:28:48.812Z,25.93
2019-06-08T18:31:20.413Z,25.94
2019-06-08T18:33:52.047Z,25.86
2019-06-08T18:36:23.797Z,25.77
2019-06-08T18:38:56.060Z,25.74
2019-06-08T18:41:28.490Z,25.77
2019-06-08T18:44:00.262Z,25.61
2019-06-08T18:46:32.666Z,25.60
2019-06-08T18:49:04.563Z,25.54
2019-06-08T18:51:38.184Z,25.50
2019-06-08T18:54:14.666Z,25.44
2019-06-08T18:56:45.080Z,25.43
2019-06-08T18:59:18.347Z,25.35
2019-06-08T19:01:50.118Z,25.35
2019-06-08T19:04:22.032Z,25.28
2019-06-08T19:06:54.561Z,25.26
2019-06-08T19:09:26.791Z,25.17
2019-06-08T19:11:58.519Z,25.12
2019-06-08T19:14:30.325Z,24.99
2019-06-08T19:17:01.914Z,24.92
2019-06-08T19:19:33.499Z,24.58
2019-06-08T19:22:05.334Z,24.35
2019-06-08T19:24:40.803Z,24.27
2019-06-08T19:27:11.769Z,24.24
2019-06-08T19:29:44.193Z,24.18
2019-06-08T19:32:17.623Z,24.10
2019-06-08T19:34:53.969Z,23.99
2019-06-08T19:37:23.161Z,23.73
2019-06-08T19:39:57.565Z,23.39
2019-06-08T19:42:40.008Z,23.08
2019-06-08T19:45:05.487Z,22.79
2019-06-08T19:47:36.538Z,22.65
2019-06-08T19:50:08.656Z,22.46
2019-06-08T19:52:43.724Z,22.28
2019-06-08T19:55:13.774Z,22.02
2019-06-08T19:57:46.373Z,21.77
2019-06-08T20:00:18.017Z,21.53
2019-06-08T20:02:53.273Z,21.34
2019-06-08T20:05:23.718Z,21.16
2019-06-08T20:07:57.523Z,21.02
2019-06-08T20:10:28.669Z,20.90
2019-06-08T20:13:00.782Z,20.76
2019-06-08T20:15:33.750Z,20.66
2019-06-08T20:18:05.774Z,20.57
2019-06-08T20:20:38.206Z,20.48
2019-06-08T20:23:10.176Z,20.42
2019-06-08T20:25:43.122Z,20.39
2019-06-08T20:28:13.889Z,20.37
2019-06-08T20:30:46.690Z,20.32
2019-06-08T20:33:18.664Z,20.25
2019-06-08T20:35:51.879Z,20.35
2019-06-08T20:38:35.257Z,20.44
2019-06-08T20:40:58.063Z,20.53
2019-06-08T20:43:29.969Z,20.62
2019-06-08T20:46:02.156Z,20.75
2019-06-08T20:48:33.996Z,20.92
2019-06-08T20:51:07.814Z,21.04
2019-06-08T20:53:39.282Z,21.05
2019-06-08T20:56:10.960Z,20.99
2019-06-08T20:58:43.191Z,21.15
2019-06-08T21:01:14.888Z,21.13
2019-06-08T21:03:48.548Z,21.11
2019-06-08T21:06:20.215Z,21.20
2019-06-08T21:08:53.228Z,21.24
2019-06-08T21:11:27.153Z,21.20
2019-06-08T21:13:58.726Z,21.21
2019-06-08T21:16:30.558Z,21.13
2019-06-08T21:19:02.336Z,21.03
2019-06-08T21:21:34.376Z,21.07
2019-06-08T21:24:08.997Z,21.14
2019-06-08T21:26:40.576Z,21.18
2019-06-08T21:29:12.378Z,21.28
2019-06-08T21:31:44.152Z,21.39
2019-06-08T21:34:18.116Z,21.34
2019-06-08T21:36:49.822Z,21.24
2019-06-08T21:39:22.282Z,21.16
2019-06-08T21:41:58.532Z,21.09
2019-06-08T21:44:28.124Z,21.08
2019-06-08T21:47:01.531Z,21.05
2019-06-08T21:49:33.598Z,21.11
2019-06-08T21:52:07.323Z,21.24
2019-06-08T21:54:38.850Z,21.29
2019-06-08T21:57:10.552Z,21.25
2019-06-08T21:59:42.473Z,21.16
2019-06-08T22:02:14.181Z,21.10
2019-06-08T22:04:47.780Z,21.07
2019-06-08T22:07:19.398Z,20.95
2019-06-08T22:09:52.017Z,20.84
2019-06-08T22:12:24.809Z,20.64
2019-06-08T22:14:59.002Z,20.61
2019-06-08T22:17:30.059Z,20.47
2019-06-08T22:20:01.599Z,20.40
2019-06-08T22:22:33.347Z,20.35
2019-06-08T22:25:04.946Z,20.24
2019-06-08T22:27:38.149Z,20.09
2019-06-08T22:30:18.451Z,19.94
2019-06-08T22:32:44.304Z,19.79
2019-06-08T22:35:16.462Z,19.69
2019-06-08T22:37:48.164Z,19.68
2019-06-08T22:40:19.787Z,19.69
2019-06-08T22:42:51.121Z,19.77
2019-06-08T22:45:22.901Z,19.85
2019-06-08T22:47:54.537Z,19.74
2019-06-08T22:50:27.544Z,19.52
2019-06-08T22:52:59.785Z,19.34
2019-06-08T22:55:31.861Z,19.12
2019-06-08T22:58:04.672Z,19.00
2019-06-08T23:00:51.368Z,18.91
2019-06-08T23:03:10.312Z,18.97
2019-06-08T23:05:41.974Z,19.00
2019-06-08T23:08:13.658Z,19.05
2019-06-08T23:10:45.481Z,19.10
2019-06-08T23:13:17.923Z,19.12
2019-06-08T23:15:49.822Z,19.16
2019-06-08T23:18:21.374Z,19.20
2019-06-08T23:20:58.253Z,19.25
2019-06-08T23:23:30.235Z,19.31
2019-06-08T23:26:03.715Z,19.34
2019-06-08T23:28:37.766Z,19.28
2019-06-08T23:31:21.032Z,19.37
2019-06-08T23:33:44.511Z,19.33
2019-06-08T23:36:46.704Z,19.48
2019-06-08T23:38:49.954Z,19.35
2019-06-08T23:41:21.925Z,19.58
2019-06-08T23:43:53.618Z,19.35
2019-06-08T23:46:27.365Z,19.47
2019-06-08T23:49:01.871Z,19.51
2019-06-08T23:51:32.981Z,19.56
2019-06-08T23:54:06.428Z,19.59
2019-06-08T23:56:38.345Z,19.43
2019-06-08T23:59:10.371Z,19.47
